Time;durP1;ratioP1;P1;durP2;ratioP2;P2;SDS_P1;SDS_P2;PMS_P1;PMS_P2;Temp;Humidity;BMP_temperature;BMP_pressure;BME280_temperature;BME280_humidity;BME280_pressure;Samples;Min_cycle;Max_cycle;Signal;HPM_P1;HPM_P2
2021/11/08 00:02:28;;;;;;;10.43;7.15;;;;;;;6.82;89.05;96055.50;5087502;28;20778;-54
2021/11/08 00:04:56;;;;;;;11.15;7.30;;;;;;;6.47;91.44;96047.16;5090478;28;20117;-50
2021/11/08 00:07:23;;;;;;;12.18;7.20;;;;;;;6.23;92.22;96044.72;5094372;28;20130;-53
2021/11/08 00:09:51;;;;;;;9.75;7.40;;;;;;;6.44;91.69;96045.88;5090657;28;20119;-51
2021/11/08 00:12:21;;;;;;;13.20;7.78;;;;;;;6.37;91.81;96047.38;5055619;28;20061;-50
2021/11/08 00:14:49;;;;;;;10.48;7.53;;;;;;;6.38;91.58;96040.91;5085571;28;20051;-51
2021/11/08 00:22:26;;;;;;;10.93;7.03;;;;;;;6.56;91.25;96050.69;5075611;28;20128;-52
2021/11/08 00:24:53;;;;;;;10.25;7.57;;;;;;;6.57;90.87;96057.69;5055112;28;20040;-49
2021/11/08 00:27:20;;;;;;;10.27;7.03;;;;;;;6.45;91.17;96052.03;5067030;28;20036;-50
2021/11/08 00:29:47;;;;;;;11.88;7.65;;;;;;;6.62;91.41;96041.44;5073635;28;20127;-48
2021/11/08 00:32:14;;;;;;;12.23;7.60;;;;;;;6.38;91.65;96054.34;5080203;28;20047;-51
2021/11/08 00:34:42;;;;;;;9.15;6.78;;;;;;;6.33;92.35;96060.59;5093845;28;20044;-50
2021/11/08 00:37:09;;;;;;;11.60;7.93;;;;;;;6.30;92.16;96053.97;5069932;28;20111;-52
2021/11/08 00:39:38;;;;;;;11.00;7.80;;;;;;;6.36;92.08;96060.00;5093415;28;20044;-50
2021/11/08 00:42:05;;;;;;;10.98;7.43;;;;;;;6.38;92.48;96070.47;5088108;28;20137;-50
2021/11/08 00:44:32;;;;;;;11.85;7.72;;;;;;;6.29;93.08;96062.31;5064820;28;20044;-50
2021/11/08 00:47:00;;;;;;;11.27;7.80;;;;;;;6.41;92.12;96067.97;5061243;28;20042;-50
2021/11/08 00:49:27;;;;;;;11.82;8.00;;;;;;;6.22;93.02;96059.25;5093247;28;20059;-50
2021/11/08 00:51:55;;;;;;;12.70;8.18;;;;;;;6.09;93.66;96052.78;5089421;28;20502;-49
2021/11/08 00:54:22;;;;;;;11.93;7.88;;;;;;;6.05;94.15;96062.56;5053927;28;20049;-49
2021/11/08 00:56:51;;;;;;;12.80;8.27;;;;;;;6.44;92.27;96072.75;5058610;28;20131;-50
2021/11/08 00:59:18;;;;;;;12.30;8.45;;;;;;;6.34;93.78;96062.22;5093211;28;20048;-50
2021/11/08 01:01:51;;;;;;;11.00;7.65;;;;;;;6.51;91.78;96072.34;5085361;28;20037;-49
2021/11/08 01:04:21;;;;;;;11.13;7.55;;;;;;;6.37;92.75;96074.25;5092999;28;20054;-51
2021/11/08 01:06:50;;;;;;;10.57;8.25;;;;;;;6.55;92.36;96081.38;5090878;28;20451;-54
2021/11/08 01:09:17;;;;;;;11.38;8.10;;;;;;;6.61;91.43;96076.69;5072972;28;20098;-53
2021/11/08 01:11:45;;;;;;;14.95;8.75;;;;;;;6.67;90.89;96076.28;5072582;28;20395;-51
2021/11/08 01:14:12;;;;;;;14.13;8.05;;;;;;;6.48;91.98;96078.31;5090766;28;20056;-53
2021/11/08 01:16:39;;;;;;;10.00;7.03;;;;;;;6.44;92.19;96080.03;5092428;28;20048;-54
2021/11/08 01:19:07;;;;;;;13.27;9.05;;;;;;;6.33;93.19;96087.47;5086184;28;20052;-50
2021/11/08 01:21:36;;;;;;;11.65;7.72;;;;;;;6.41;92.77;96086.78;5063547;28;20055;-50
2021/11/08 01:24:04;;;;;;;12.65;8.35;;;;;;;6.31;93.28;96087.00;5059171;28;20059;-51
2021/11/08 01:26:33;;;;;;;12.27;8.50;;;;;;;6.37;92.56;96087.69;5052617;28;20041;-50
2021/11/08 01:29:00;;;;;;;12.13;8.60;;;;;;;6.78;90.94;96087.59;5081294;28;20171;-53
2021/11/08 01:31:27;;;;;;;10.93;7.60;;;;;;;6.33;93.22;96082.91;5089091;28;20123;-51
2021/11/08 01:33:54;;;;;;;9.85;7.28;;;;;;;6.31;94.19;96084.31;5052323;28;20080;-54
2021/11/08 01:36:27;;;;;;;11.55;8.02;;;;;;;6.52;92.25;96087.34;5052535;28;20047;-50
2021/11/08 01:38:59;;;;;;;11.25;7.82;;;;;;;6.43;92.87;96081.09;5052448;28;20045;-53
2021/11/08 01:41:27;;;;;;;11.88;7.80;;;;;;;6.27;93.12;96077.94;5069407;28;20456;-50
2021/11/08 01:43:59;;;;;;;10.73;8.07;;;;;;;6.14;94.02;96074.16;5052001;28;20045;-49
2021/11/08 01:46:26;;;;;;;11.27;7.75;;;;;;;6.13;94.41;96086.00;5052345;28;20064;-53
2021/11/08 01:48:53;;;;;;;11.85;7.95;;;;;;;6.40;92.25;96085.22;5091969;28;20135;-52
2021/11/08 01:51:20;;;;;;;14.07;7.93;;;;;;;6.50;91.86;96094.91;5074078;28;20047;-52
2021/11/08 01:53:48;;;;;;;11.52;8.13;;;;;;;6.47;92.24;96098.22;5062325;28;20044;-51
2021/11/08 01:56:16;;;;;;;10.13;7.55;;;;;;;6.91;89.45;96092.13;5052216;28;20422;-51
2021/11/08 01:58:44;;;;;;;10.95;7.95;;;;;;;6.67;91.05;96094.31;5089274;28;20040;-52
2021/11/08 02:01:11;;;;;;;9.00;6.85;;;;;;;7.07;88.68;96099.84;5091810;28;20036;-50
2021/11/08 02:03:38;;;;;;;9.82;7.18;;;;;;;7.00;89.02;96094.88;5078850;28;20047;-53
2021/11/08 02:06:05;;;;;;;10.80;7.25;;;;;;;6.67;89.48;96102.38;5092121;28;20113;-53
2021/11/08 02:08:33;;;;;;;9.55;7.18;;;;;;;6.62;90.25;96100.56;5074980;28;20098;-50
2021/11/08 02:11:00;;;;;;;15.45;7.50;;;;;;;6.67;90.19;96097.78;5064693;28;20051;-51
2021/11/08 02:13:27;;;;;;;10.05;7.35;;;;;;;6.83;89.40;96100.13;5082589;28;20044;-54
2021/11/08 02:15:54;;;;;;;11.82;7.95;;;;;;;6.96;89.00;96096.59;5091783;28;20068;-51
2021/11/08 02:18:23;;;;;;;13.40;8.45;;;;;;;6.89;88.65;96104.28;5072535;28;20040;-50
2021/11/08 02:20:52;;;;;;;10.40;7.38;;;;;;;6.71;89.45;96106.81;5069843;28;20403;-52
2021/11/08 02:23:20;;;;;;;12.20;8.68;;;;;;;7.31;86.58;96108.38;5065175;28;20159;-47
2021/11/08 02:25:49;;;;;;;13.48;8.52;;;;;;;6.82;88.50;96103.91;5051477;28;20048;-48
2021/11/08 02:28:16;;;;;;;13.60;8.57;;;;;;;6.85;88.31;96101.41;5053590;28;20045;-49
2021/11/08 02:30:44;;;;;;;11.43;8.15;;;;;;;6.70;89.06;96099.09;5051299;28;20063;-53
2021/11/08 02:33:16;;;;;;;10.90;7.75;;;;;;;6.54;90.15;96104.78;5050802;28;20136;-52
2021/11/08 02:35:44;;;;;;;12.27;8.73;;;;;;;6.42;91.14;96098.34;5051394;28;20132;-50
2021/11/08 02:38:19;;;;;;;11.55;7.93;;;;;;;6.53;90.58;96102.38;5051318;28;20041;-51
2021/11/08 02:40:47;;;;;;;11.93;8.70;;;;;;;7.01;88.70;96107.22;5050968;28;20047;-49
2021/11/08 02:43:20;;;;;;;10.88;8.02;;;;;;;6.83;88.71;96105.53;5080160;28;20040;-49
2021/11/08 02:46:07;;;;;;;11.60;8.27;;;;;;;6.72;89.15;96105.72;5091704;28;20052;-48
2021/11/08 02:48:36;;;;;;;10.85;7.38;;;;;;;6.61;90.52;96107.06;5061778;28;20579;-52
2021/11/08 02:51:12;;;;;;;11.88;8.00;;;;;;;6.79;89.41;96103.44;5051035;28;20091;-53
2021/11/08 02:53:40;;;;;;;10.50;7.50;;;;;;;6.76;89.11;96114.78;5069706;28;20065;-50
2021/11/08 02:56:09;;;;;;;12.70;8.35;;;;;;;6.70;89.70;96107.94;5051186;28;20530;-50
2021/11/08 02:58:39;;;;;;;12.32;7.78;;;;;;;6.82;89.18;96104.69;5068414;28;20055;-53
2021/11/08 03:01:07;;;;;;;11.07;7.53;;;;;;;6.70;89.72;96107.16;5071162;28;20403;-50
2021/11/08 03:03:40;;;;;;;10.15;7.45;;;;;;;6.68;89.46;96114.72;5054012;28;20055;-54
2021/11/08 03:06:16;;;;;;;12.32;8.20;;;;;;;6.54;89.98;96112.84;5079809;28;20373;-50
2021/11/08 03:08:43;;;;;;;10.63;8.32;;;;;;;6.97;88.16;96111.63;5077343;28;20087;-49
2021/11/08 03:11:11;;;;;;;11.93;8.20;;;;;;;7.06;87.82;96106.34;5073050;28;20068;-51
2021/11/08 03:13:40;;;;;;;11.70;8.50;;;;;;;7.40;86.17;96106.56;5093283;28;21920;-52
2021/11/08 03:16:40;;;;;;;10.10;7.20;;;;;;;6.92;87.81;96098.28;5095212;28;20361;-52
2021/11/08 03:18:57;;;;;;;12.40;8.32;;;;;;;7.41;85.78;96110.03;5095219;28;20123;-52
2021/11/08 03:21:24;;;;;;;11.15;7.88;;;;;;;7.07;87.09;96110.59;5066466;28;20051;-53
2021/11/08 03:23:54;;;;;;;10.90;7.35;;;;;;;6.98;87.29;96102.47;5065879;28;20514;-49
2021/11/08 03:28:55;;;;;;;11.68;7.72;;;;;;;6.70;88.59;96107.94;5094961;28;20505;-52
2021/11/08 03:31:23;;;;;;;10.23;7.80;;;;;;;6.58;89.57;96104.97;5059420;28;20437;-50
2021/11/08 03:33:50;;;;;;;10.35;7.60;;;;;;;6.54;89.76;96114.75;5064912;28;20467;-50
2021/11/08 03:36:17;;;;;;;10.88;8.13;;;;;;;6.60;89.54;96108.16;5086166;28;20046;-49
2021/11/08 03:38:44;;;;;;;10.65;8.27;;;;;;;6.88;88.38;96116.16;5090051;28;20044;-50
2021/11/08 03:41:11;;;;;;;10.65;7.85;;;;;;;6.72;88.91;96118.38;5057883;28;20081;-51
2021/11/08 03:43:39;;;;;;;11.35;8.27;;;;;;;6.55;89.34;96114.44;5094326;28;20046;-50
2021/11/08 03:46:06;;;;;;;10.70;7.78;;;;;;;6.56;89.73;96117.91;5084956;28;20040;-49
2021/11/08 03:48:34;;;;;;;10.55;8.10;;;;;;;6.60;89.72;96118.91;5057355;28;20045;-49
2021/11/08 03:51:02;;;;;;;12.68;8.82;;;;;;;6.78;88.66;96123.34;5069528;28;20159;-50
2021/11/08 03:53:29;;;;;;;11.52;7.68;;;;;;;6.81;88.26;96132.69;5085836;28;20037;-49
2021/11/08 03:56:01;;;;;;;12.18;7.82;;;;;;;6.58;89.46;96123.78;5074583;28;20044;-49
2021/11/08 03:58:28;;;;;;;12.13;7.65;;;;;;;6.65;89.36;96121.47;5074293;28;20040;-49
2021/11/08 04:00:55;;;;;;;12.15;8.38;;;;;;;6.50;89.84;96124.47;5078165;28;20044;-50
2021/11/08 04:03:22;;;;;;;13.45;8.05;;;;;;;6.66;89.35;96124.97;5066386;28;20111;-49
2021/11/08 04:05:49;;;;;;;12.00;8.88;;;;;;;7.15;86.22;96129.50;5049612;28;20459;-51
2021/11/08 04:08:20;;;;;;;12.18;7.72;;;;;;;6.70;88.06;96123.28;5094354;28;20050;-49
2021/11/08 04:10:52;;;;;;;11.55;7.47;;;;;;;6.81;87.77;96134.59;5084530;28;20465;-51
2021/11/08 04:13:25;;;;;;;11.77;7.70;;;;;;;7.05;86.51;96132.41;5074070;28;20047;-51
2021/11/08 04:15:52;;;;;;;;;;;;;;;6.81;88.16;96132.69;5080935;28;20044;-53
2021/11/08 04:18:23;;;;;;;11.30;7.20;;;;;;;6.61;88.74;96133.94;5068511;28;19921;-51
2021/11/08 04:20:52;;;;;;;12.30;9.25;;;;;;;6.67;88.61;96130.03;5067842;28;20486;-53
2021/11/08 04:23:21;;;;;;;11.38;7.95;;;;;;;6.53;89.15;96130.09;5073391;28;20080;-51
2021/11/08 04:25:49;;;;;;;11.63;7.78;;;;;;;6.67;89.00;96129.25;5055847;28;20044;-53
2021/11/08 04:28:16;;;;;;;11.85;7.88;;;;;;;6.55;89.04;96130.56;5078934;28;20036;-53
2021/11/08 04:30:44;;;;;;;10.05;7.93;;;;;;;6.60;89.26;96128.84;5094270;28;20043;-50
2021/11/08 04:41:07;;;;;;;10.23;7.25;;;;;;;6.38;89.40;96133.06;5074252;28;19924;-52
2021/11/08 04:46:38;;;;;;;10.93;7.35;;;;;;;6.69;88.66;96138.59;5093530;28;20513;-50
2021/11/08 04:52:05;;;;;;;;;;;;;;;6.53;88.09;96145.38;5074003;28;20028;-50
2021/11/08 05:24:41;;;;;;;10.20;7.43;;;;;;;6.41;88.32;96158.56;5066983;28;20048;-50
2021/11/08 05:32:21;;;;;;;10.00;7.40;;;;;;;6.82;86.77;96171.13;5072317;28;20135;-51
2021/11/08 05:34:48;;;;;;;9.55;7.47;;;;;;;7.20;84.36;96169.75;5072443;28;20047;-52
2021/11/08 05:37:15;;;;;;;12.55;8.77;;;;;;;7.47;82.89;96176.13;5078183;28;20128;-51
2021/11/08 05:39:48;;;;;;;10.88;7.68;;;;;;;6.98;84.50;96183.94;5070409;28;20454;-51
2021/11/08 05:42:16;;;;;;;11.80;7.72;;;;;;;6.72;85.32;96185.59;5063581;28;20043;-52
2021/11/08 05:44:44;;;;;;;10.23;6.97;;;;;;;6.43;86.90;96181.34;5092645;28;20044;-51
2021/11/08 05:47:11;;;;;;;12.50;7.57;;;;;;;6.43;87.36;96184.03;5092534;28;20131;-50
2021/11/08 05:49:38;;;;;;;10.75;7.25;;;;;;;6.24;87.70;96186.00;5076007;28;20048;-52
2021/11/08 05:52:06;;;;;;;11.35;7.90;;;;;;;6.29;87.49;96188.59;5072582;28;20041;-51
2021/11/08 05:54:33;;;;;;;10.10;6.80;;;;;;;6.25;87.60;96185.72;5070573;28;20192;-53
2021/11/08 05:57:42;;;;;;;10.00;6.60;;;;;;;6.04;88.65;96187.97;5082089;28;20048;-51
2021/11/08 06:49:35;;;;;;;10.57;7.63;;;;;;;6.14;86.19;96229.97;5091369;28;20044;-50
2021/11/08 06:52:05;;;;;;;13.15;7.60;;;;;;;6.06;85.73;96236.06;5064827;28;20041;-49
2021/11/08 06:54:32;;;;;;;10.85;7.13;;;;;;;6.43;84.31;96242.34;5065308;28;20123;-50
2021/11/08 06:57:10;;;;;;;9.10;6.78;;;;;;;6.86;81.45;96250.13;5053376;28;20044;-53
2021/11/08 06:59:37;;;;;;;11.88;7.00;;;;;;;6.53;83.62;96247.53;5076112;28;20182;-51
2021/11/08 07:02:05;;;;;;;11.50;6.95;;;;;;;6.93;81.78;96250.53;5085217;28;20040;-49
2021/11/08 07:04:32;;;;;;;11.82;7.38;;;;;;;6.88;81.79;96247.94;5091127;28;20044;-49
2021/11/08 07:07:00;;;;;;;12.23;6.53;;;;;;;6.58;83.11;96250.13;5058284;28;20082;-51
2021/11/08 07:09:27;;;;;;;12.35;6.68;;;;;;;6.52;84.14;96245.94;5084149;28;20107;-50
2021/11/08 07:11:55;;;;;;;10.25;6.22;;;;;;;6.34;84.68;96244.97;5067017;28;20075;-50
2021/11/08 07:14:22;;;;;;;13.07;6.50;;;;;;;6.41;84.63;96249.94;5080346;28;20044;-50
2021/11/08 07:16:49;;;;;;;10.82;6.30;;;;;;;7.22;80.72;96259.06;5069092;28;20140;-50
2021/11/08 07:19:17;;;;;;;13.45;6.85;;;;;;;7.37;79.60;96254.41;5065760;28;20064;-49
2021/11/08 07:21:44;;;;;;;14.02;6.75;;;;;;;7.35;79.29;96241.28;5068519;28;20040;-53
2021/11/08 07:24:11;;;;;;;12.45;7.13;;;;;;;7.15;79.78;96250.59;5074922;28;20412;-50
2021/11/08 07:26:38;;;;;;;14.23;7.15;;;;;;;7.24;80.29;96246.06;5070131;28;20127;-49
2021/11/08 07:29:06;;;;;;;11.07;6.28;;;;;;;6.78;82.01;96248.94;5070641;28;20045;-50
2021/11/08 07:31:35;;;;;;;11.63;5.88;;;;;;;6.53;83.54;96258.28;5070035;28;20375;-48
2021/11/08 07:34:02;;;;;;;11.43;6.18;;;;;;;6.74;82.63;96256.81;5066919;28;20052;-48
2021/11/08 07:36:29;;;;;;;10.80;5.88;;;;;;;6.63;83.40;96244.69;5058441;28;20041;-47
2021/11/08 07:38:57;;;;;;;9.20;5.72;;;;;;;6.72;82.72;96252.81;5079099;28;20399;-51
2021/11/08 07:41:24;;;;;;;11.30;5.25;;;;;;;6.91;80.63;96250.81;5069942;28;20033;-49
2021/11/08 07:43:51;;;;;;;11.13;5.47;;;;;;;6.92;80.13;96252.44;5071947;28;20045;-49
2021/11/08 07:46:19;;;;;;;11.60;5.95;;;;;;;7.17;79.00;96255.66;5078434;28;20044;-49
2021/11/08 07:48:46;;;;;;;12.13;6.18;;;;;;;7.08;79.43;96252.09;5074294;28;20056;-48
2021/11/08 07:51:15;;;;;;;9.73;4.72;;;;;;;6.82;80.85;96255.31;5072291;28;20417;-49
2021/11/08 07:53:43;;;;;;;12.90;5.78;;;;;;;7.13;78.75;96249.31;5072504;28;20048;-50
2021/11/08 07:56:11;;;;;;;18.48;6.30;;;;;;;7.09;78.16;96256.41;5072702;28;20075;-49
2021/11/08 07:58:38;;;;;;;13.52;5.15;;;;;;;7.16;77.77;96254.09;5057749;28;20049;-52
2021/11/08 08:01:07;;;;;;;14.48;5.30;;;;;;;7.16;76.50;96264.84;5072664;28;20047;-52
2021/11/08 08:03:34;;;;;;;10.32;5.05;;;;;;;6.98;78.04;96263.88;5072320;28;20060;-49
2021/11/08 08:06:02;;;;;;;9.90;4.95;;;;;;;7.18;76.85;96257.25;5070452;28;20056;-49
2021/11/08 08:08:30;;;;;;;12.93;5.68;;;;;;;7.22;76.25;96255.56;5066045;28;20452;-50
2021/11/08 08:10:57;;;;;;;11.45;5.40;;;;;;;7.15;77.27;96261.38;5072688;28;20123;-51
2021/11/08 08:13:27;;;;;;;14.02;5.68;;;;;;;7.08;78.08;96258.25;5081711;28;20155;-50
2021/11/08 08:16:00;;;;;;;15.48;5.70;;;;;;;7.32;78.06;96268.00;5063812;28;20032;-50
2021/11/08 08:18:29;;;;;;;12.80;5.70;;;;;;;7.34;77.69;96258.50;5073086;28;20068;-49
2021/11/08 08:20:56;;;;;;;10.95;5.05;;;;;;;7.05;79.28;96266.94;5072211;28;20052;-50
2021/11/08 08:23:24;;;;;;;7.97;4.00;;;;;;;7.05;77.63;96261.56;5076779;28;20040;-49
2021/11/08 08:25:52;;;;;;;11.63;4.60;;;;;;;7.17;77.47;96263.75;5055168;28;20051;-49
2021/11/08 08:28:19;;;;;;;10.38;4.95;;;;;;;7.12;75.97;96264.66;5072796;28;20128;-50
2021/11/08 08:30:46;;;;;;;10.20;4.20;;;;;;;7.15;75.51;96266.75;5071289;28;20409;-49
2021/11/08 08:33:13;;;;;;;12.05;4.10;;;;;;;7.17;75.43;96259.16;5063042;28;20045;-49
2021/11/08 08:35:40;;;;;;;13.25;4.03;;;;;;;7.06;74.99;96265.84;5064758;28;20127;-50
2021/11/08 08:38:09;;;;;;;14.23;3.40;;;;;;;7.18;74.31;96273.41;5073060;28;20070;-51
2021/11/08 08:40:37;;;;;;;11.60;3.10;;;;;;;7.10;73.39;96266.84;5072442;28;20351;-49
2021/11/08 08:43:05;;;;;;;8.68;3.58;;;;;;;7.04;72.62;96265.34;5077258;28;20036;-49
2021/11/08 08:45:34;;;;;;;9.18;3.03;;;;;;;7.04;72.48;96270.72;5086876;28;20047;-51
2021/11/08 08:48:02;;;;;;;9.30;3.10;;;;;;;6.95;73.12;96275.22;5072659;28;20048;-51
2021/11/08 08:50:32;;;;;;;10.90;3.58;;;;;;;7.12;73.02;96270.03;5070781;28;20040;-51
2021/11/08 08:52:59;;;;;;;8.75;2.80;;;;;;;7.15;71.80;96279.38;5067434;28;20887;-48
2021/11/08 08:55:26;;;;;;;11.25;3.50;;;;;;;7.08;73.71;96277.09;5074665;28;20070;-50
2021/11/08 08:57:54;;;;;;;10.25;3.50;;;;;;;7.13;71.90;96281.59;5060514;28;20045;-49
2021/11/08 09:00:22;;;;;;;10.77;3.22;;;;;;;7.09;71.97;96273.34;5077371;28;20051;-52
2021/11/08 09:02:52;;;;;;;9.98;3.20;;;;;;;6.82;73.09;96279.50;5053826;28;20098;-50
2021/11/08 09:05:22;;;;;;;11.23;2.70;;;;;;;6.73;74.84;96290.19;5066887;28;20049;-51
2021/11/08 09:07:50;;;;;;;12.25;4.00;;;;;;;6.61;76.37;96286.41;5081367;28;20051;-49
2021/11/08 09:10:19;;;;;;;15.10;3.35;;;;;;;6.58;76.03;96285.09;5088014;28;20044;-52
2021/11/08 09:12:47;;;;;;;10.38;3.70;;;;;;;6.65;76.48;96282.81;5066714;28;20747;-53
2021/11/08 09:15:14;;;;;;;14.57;3.20;;;;;;;6.63;76.95;96285.00;5072507;28;20144;-52
2021/11/08 09:17:43;;;;;;;13.60;3.47;;;;;;;6.66;78.84;96289.78;5054083;28;20406;-51
2021/11/08 09:20:10;;;;;;;9.90;3.25;;;;;;;6.94;76.33;96289.78;5060955;28;20585;-52
2021/11/08 09:22:42;;;;;;;9.70;3.22;;;;;;;7.13;73.61;96284.28;5034789;28;20037;-49
2021/11/08 09:25:11;;;;;;;17.98;3.25;;;;;;;7.44;71.07;96287.94;5052283;28;20055;-51
2021/11/08 09:27:40;;;;;;;12.50;3.72;;;;;;;7.64;72.65;96291.25;5070237;28;20044;-49
2021/11/08 09:30:11;;;;;;;10.98;3.38;;;;;;;7.51;73.58;96290.19;5058668;28;20072;-52
2021/11/08 09:32:38;;;;;;;11.90;3.47;;;;;;;7.49;73.67;96293.19;5070091;28;20569;-50
2021/11/08 09:35:07;;;;;;;11.73;3.13;;;;;;;7.73;71.92;96292.94;5078467;28;20481;-51
2021/11/08 09:37:37;;;;;;;7.50;3.00;;;;;;;7.50;72.47;96296.66;5073708;28;20051;-50
2021/11/08 09:40:05;;;;;;;6.13;2.67;;;;;;;7.49;74.41;96297.78;5059431;28;20041;-49
2021/11/08 09:42:35;;;;;;;11.88;3.65;;;;;;;7.70;70.86;96290.00;5078281;28;20131;-49
2021/11/08 09:45:05;;;;;;;19.00;3.10;;;;;;;8.05;66.85;96291.06;5075654;28;20051;-51
2021/11/08 09:47:34;;;;;;;13.18;3.10;;;;;;;7.74;69.94;96291.03;5068231;28;20102;-49
2021/11/08 09:50:04;;;;;;;9.88;3.50;;;;;;;8.04;66.44;96294.88;5078631;28;20040;-50
2021/11/08 09:52:36;;;;;;;15.30;3.65;;;;;;;7.97;68.39;96295.31;5070949;28;20111;-49
2021/11/08 09:55:07;;;;;;;9.32;2.92;;;;;;;7.96;67.29;96295.59;5067976;28;20138;-50
2021/11/08 09:57:34;;;;;;;12.10;3.47;;;;;;;7.58;67.45;96297.84;5079180;28;20082;-49
2021/11/08 10:00:15;;;;;;;8.95;2.85;;;;;;;7.66;68.13;96294.44;5091882;28;20055;-51
2021/11/08 10:02:50;;;;;;;12.10;3.58;;;;;;;7.72;67.53;96298.59;5061660;28;20038;-50
2021/11/08 10:05:17;;;;;;;11.55;3.20;;;;;;;7.66;67.78;96297.91;5072578;28;20047;-53
2021/11/08 10:07:45;;;;;;;8.88;3.35;;;;;;;7.73;67.47;96298.31;5070961;28;20036;-51
2021/11/08 10:10:12;;;;;;;13.80;3.55;;;;;;;7.87;67.08;96303.63;5078570;28;20064;-52
2021/11/08 10:12:39;;;;;;;10.23;3.40;;;;;;;7.82;66.98;96308.34;5074951;28;20490;-49
2021/11/08 10:15:09;;;;;;;9.25;3.17;;;;;;;7.76;67.87;96296.88;5072682;28;20132;-53
2021/11/08 10:17:36;;;;;;;14.27;3.70;;;;;;;7.67;66.30;96304.09;5070861;28;20115;-51
2021/11/08 10:20:04;;;;;;;9.68;3.10;;;;;;;7.77;65.11;96303.88;5061670;28;20040;-49
2021/11/08 10:22:32;;;;;;;8.68;2.63;;;;;;;7.75;65.85;96299.91;5067736;28;20538;-53
2021/11/08 10:25:03;;;;;;;12.57;3.10;;;;;;;7.79;64.62;96306.25;5068255;28;20071;-49
2021/11/08 10:27:42;;;;;;;12.88;3.65;;;;;;;7.74;65.55;96296.41;5060577;28;20516;-49
2021/11/08 10:30:32;;;;;;;10.48;2.67;;;;;;;7.65;65.33;96300.91;5061347;28;20037;-49
2021/11/08 10:33:16;;;;;;;13.85;2.67;;;;;;;7.61;66.08;96308.03;5075072;28;20442;-48
2021/11/08 10:35:49;;;;;;;8.13;2.35;;;;;;;7.53;67.45;96303.34;5071379;28;20038;-51
2021/11/08 10:38:21;;;;;;;14.77;3.80;;;;;;;7.68;68.29;96305.69;5063700;28;20392;-52
2021/11/08 10:40:51;;;;;;;11.23;3.50;;;;;;;7.39;69.65;96306.88;5080093;28;20402;-51
2021/11/08 10:43:32;;;;;;;10.82;3.03;;;;;;;7.28;71.34;96307.38;5068974;28;20033;-50
2021/11/08 10:46:08;;;;;;;10.55;3.45;;;;;;;7.16;73.30;96302.53;5090105;28;20050;-50
2021/11/08 10:48:48;;;;;;;10.05;3.75;;;;;;;7.56;70.53;96300.84;5067295;28;20047;-49
2021/11/08 10:51:18;;;;;;;9.63;3.88;;;;;;;7.56;70.78;96295.44;5066019;28;20097;-50
2021/11/08 10:53:52;;;;;;;11.85;3.63;;;;;;;7.76;70.01;96302.28;5070368;28;20123;-49
2021/11/08 10:56:39;;;;;;;9.93;4.20;;;;;;;7.81;70.52;96301.38;5071343;28;20072;-51
2021/11/08 10:59:13;;;;;;;9.98;4.22;;;;;;;7.58;71.75;96298.66;5070583;28;20048;-50
2021/11/08 11:01:52;;;;;;;12.43;3.72;;;;;;;7.45;71.41;96302.19;5074961;28;20127;-52
2021/11/08 11:04:35;;;;;;;10.80;4.40;;;;;;;7.47;72.46;96302.66;5068777;28;20044;-49
2021/11/08 11:07:03;;;;;;;;;;;;;;;7.22;74.60;96306.69;5071628;28;20040;-49
2021/11/08 11:09:36;;;;;;;10.90;3.78;;;;;;;7.23;73.62;96292.13;5069793;28;19924;-51
2021/11/08 11:12:04;;;;;;;15.82;4.40;;;;;;;7.53;72.90;96297.97;5066626;28;20037;-53
2021/11/08 11:14:50;;;;;;;10.85;3.55;;;;;;;7.42;72.08;96292.00;5064735;28;20135;-52
2021/11/08 11:17:22;;;;;;;12.05;3.92;;;;;;;7.27;74.67;96290.44;5070957;28;20060;-53
2021/11/08 11:19:51;;;;;;;11.27;3.40;;;;;;;7.36;72.60;96290.53;5068545;28;20452;-53
2021/11/08 11:22:20;;;;;;;13.90;3.65;;;;;;;7.14;75.24;96283.19;5075370;28;20040;-50
2021/11/08 11:24:53;;;;;;;13.07;4.05;;;;;;;7.02;75.86;96295.25;5068017;28;20517;-53
2021/11/08 11:27:30;;;;;;;10.23;3.33;;;;;;;6.98;75.42;96285.38;5073454;28;20040;-52
2021/11/08 11:30:32;;;;;;;9.93;2.78;;;;;;;7.06;74.16;96276.63;5072634;28;20055;-54
2021/11/08 11:33:03;;;;;;;14.45;3.42;;;;;;;7.27;74.49;96276.97;5011659;28;20524;-52
2021/11/08 11:35:36;;;;;;;16.23;3.58;;;;;;;7.88;71.34;96280.19;5073710;28;20080;-51
2021/11/08 11:38:06;;;;;;;13.73;3.80;;;;;;;8.33;69.44;96277.47;5056810;28;20045;-54
2021/11/08 11:40:40;;;;;;;16.98;3.55;;;;;;;8.43;68.62;96279.91;5072483;28;20144;-53
2021/11/08 11:43:10;;;;;;;10.80;3.72;;;;;;;8.74;65.78;96279.09;5073591;28;20047;-49
2021/11/08 11:45:52;;;;;;;10.93;4.07;;;;;;;8.87;65.35;96272.78;5059367;28;20162;-50
2021/11/08 11:48:23;;;;;;;12.20;3.75;;;;;;;8.93;65.07;96282.34;5074542;28;20476;-49
2021/11/08 11:51:08;;;;;;;10.27;4.10;;;;;;;8.84;66.19;96276.94;5079928;28;20052;-51
2021/11/08 11:53:37;;;;;;;11.60;3.42;;;;;;;8.77;69.38;96267.69;5072926;28;20058;-51
2021/11/08 11:56:04;;;;;;;12.27;4.00;;;;;;;9.08;68.84;96271.13;5072481;28;20409;-49
2021/11/08 11:58:32;;;;;;;14.00;5.68;;;;;;;9.65;63.98;96272.13;5050420;28;20040;-49
2021/11/08 12:00:59;;;;;;;15.10;3.88;;;;;;;9.71;63.27;96273.56;5080568;28;20072;-49
2021/11/08 12:03:29;;;;;;;14.27;3.63;;;;;;;10.09;64.65;96267.53;5063081;28;20041;-47
2021/11/08 12:05:57;;;;;;;10.60;3.15;;;;;;;10.52;62.45;96265.53;5071581;28;20045;-50
2021/11/08 12:08:28;;;;;;;10.15;2.95;;;;;;;10.62;59.18;96264.38;5049771;28;20123;-54
2021/11/08 12:10:56;;;;;;;13.30;3.03;;;;;;;10.31;62.53;96264.66;5067211;28;20087;-55
2021/11/08 12:13:29;;;;;;;9.90;2.88;;;;;;;10.30;60.63;96257.63;5074420;28;20066;-50
2021/11/08 12:16:11;;;;;;;12.95;3.78;;;;;;;10.44;60.43;96252.03;5070350;28;20127;-49
2021/11/08 12:18:38;;;;;;;9.00;3.20;;;;;;;10.48;63.30;96255.69;5067252;28;20413;-52
2021/11/08 12:21:05;;;;;;;14.82;3.55;;;;;;;10.71;58.50;96251.59;5062715;28;20040;-51
2021/11/08 12:23:39;;;;;;;13.52;3.25;;;;;;;10.84;58.52;96255.22;5058540;28;20040;-49
2021/11/08 12:26:25;;;;;;;9.25;3.25;;;;;;;10.84;57.61;96249.81;5077336;28;20057;-54
2021/11/08 12:29:07;;;;;;;9.95;3.15;;;;;;;10.16;59.87;96246.97;5080078;28;20471;-51
2021/11/08 12:31:34;;;;;;;11.32;2.78;;;;;;;9.86;62.24;96248.78;5072988;28;20054;-50
2021/11/08 12:34:16;;;;;;;11.95;3.20;;;;;;;9.41;61.65;96246.41;5070813;28;21719;-49
2021/11/08 12:37:01;;;;;;;7.50;2.70;;;;;;;9.01;62.52;96241.09;5073639;28;20041;-48
2021/11/08 12:39:29;;;;;;;9.93;3.38;;;;;;;8.98;63.46;96239.03;5077472;28;20417;-48
2021/11/08 12:42:02;;;;;;;10.52;2.80;;;;;;;8.63;62.59;96238.91;5072365;28;20419;-52
2021/11/08 12:44:39;;;;;;;8.82;2.90;;;;;;;8.37;64.67;96244.16;5070441;28;20127;-49
2021/11/08 12:47:09;;;;;;;6.40;2.25;;;;;;;8.14;64.83;96235.34;5073822;28;20097;-53
2021/11/08 12:49:51;;;;;;;7.07;2.55;;;;;;;8.02;64.29;96231.63;5058339;28;20493;-48
2021/11/08 12:52:21;;;;;;;9.50;2.60;;;;;;;8.06;65.51;96224.50;5083901;28;20040;-50
2021/11/08 12:54:48;;;;;;;10.38;2.53;;;;;;;8.20;65.90;96226.00;5063955;28;20123;-49
2021/11/08 12:57:17;;;;;;;9.60;2.90;;;;;;;8.27;66.06;96216.69;5068701;28;20056;-50
2021/11/08 12:59:54;;;;;;;8.88;2.30;;;;;;;8.35;65.31;96218.63;5075848;28;20044;-52
2021/11/08 13:02:27;;;;;;;9.75;2.63;;;;;;;8.14;63.53;96218.38;5057257;28;20044;-48
2021/11/08 13:04:59;;;;;;;16.70;2.65;;;;;;;8.23;65.12;96210.34;5070488;28;20051;-50
2021/11/08 13:07:30;;;;;;;13.55;2.70;;;;;;;8.50;62.49;96204.75;5061067;28;20044;-52
2021/11/08 13:09:58;;;;;;;8.25;2.40;;;;;;;8.69;62.89;96218.00;5080441;28;20040;-52
2021/11/08 13:12:34;;;;;;;7.82;2.67;;;;;;;8.72;63.37;96206.59;5064616;28;20061;-49
2021/11/08 13:15:22;;;;;;;14.07;2.70;;;;;;;8.93;60.21;96209.47;5070652;28;20072;-51
2021/11/08 13:18:05;;;;;;;11.65;2.67;;;;;;;8.86;61.55;96215.34;5068653;28;20052;-51
2021/11/08 13:20:36;;;;;;;9.47;2.53;;;;;;;9.10;61.17;96214.13;5065254;28;20051;-49
2021/11/08 13:23:07;;;;;;;10.27;2.88;;;;;;;9.12;60.43;96215.38;5066983;28;20040;-51
2021/11/08 13:25:36;;;;;;;10.30;2.78;;;;;;;9.15;59.85;96218.56;5076997;28;20052;-50
2021/11/08 13:28:06;;;;;;;6.75;2.00;;;;;;;9.12;60.44;96215.38;5078498;28;20102;-50
2021/11/08 13:30:42;;;;;;;8.70;2.45;;;;;;;8.95;63.92;96209.97;5068112;28;20050;-51
2021/11/08 13:33:12;;;;;;;11.70;3.00;;;;;;;9.17;60.63;96219.06;5047633;28;20087;-48
2021/11/08 13:35:40;;;;;;;12.45;2.90;;;;;;;8.89;62.21;96222.03;5051696;28;20421;-48
2021/11/08 13:38:28;;;;;;;11.32;3.65;;;;;;;8.72;64.93;96216.59;5068559;28;20083;-48